Time;durP1;ratioP1;P1;durP2;ratioP2;P2;SDS_P1;SDS_P2;PMS_P1;PMS_P2;Temp;Humidity;BMP_temperature;BMP_pressure;BME280_temperature;BME280_humidity;BME280_pressure;Samples;Min_cycle;Max_cycle;Signal;HPM_P1;HPM_P2
2022/06/12 00:00:54;;;;;;;8.45;4.00;;;;;;;16.24;100.00;97186.56;5029212;28;20068;-71
2022/06/12 00:03:22;;;;;;;8.57;4.20;;;;;;;16.32;100.00;97183.34;5027596;28;20045;-71
2022/06/12 00:05:49;;;;;;;9.73;3.97;;;;;;;16.31;100.00;97180.91;5027904;28;20083;-71
2022/06/12 00:08:19;;;;;;;9.63;4.25;;;;;;;16.32;100.00;97179.81;5030778;28;20045;-74
2022/06/12 00:10:47;;;;;;;10.85;4.47;;;;;;;16.25;100.00;97182.78;5030664;28;20045;-72
2022/06/12 00:13:18;;;;;;;12.20;4.15;;;;;;;16.17;100.00;97186.00;5030239;28;20044;-73
2022/06/12 00:15:44;;;;;;;10.13;4.53;;;;;;;16.23;100.00;97187.63;5027842;28;20045;-71
2022/06/12 00:18:09;;;;;;;7.18;4.20;;;;;;;16.21;100.00;97181.69;5029361;28;20045;-72
2022/06/12 00:20:34;;;;;;;9.00;4.03;;;;;;;16.15;100.00;97183.56;5027680;28;20281;-73
2022/06/12 00:23:05;;;;;;;9.75;3.88;;;;;;;16.08;100.00;97183.00;5029048;28;20549;-71
2022/06/12 00:25:30;;;;;;;10.70;5.00;;;;;;;15.97;100.00;97177.88;5030321;28;20046;-72
2022/06/12 00:27:56;;;;;;;10.70;4.85;;;;;;;15.99;100.00;97173.81;5031078;28;20420;-73
2022/06/12 00:30:25;;;;;;;10.57;5.25;;;;;;;16.10;100.00;97177.34;5026715;28;20049;-71
2022/06/12 00:32:52;;;;;;;9.20;4.40;;;;;;;16.19;100.00;97173.06;5029626;28;20037;-73
2022/06/12 00:35:24;;;;;;;12.52;5.25;;;;;;;16.21;100.00;97167.41;5027842;28;20140;-74
2022/06/12 00:37:50;;;;;;;8.32;3.90;;;;;;;16.20;100.00;97172.00;5032016;28;21219;-71
2022/06/12 00:40:17;;;;;;;11.52;3.95;;;;;;;16.07;100.00;97169.78;5029644;28;20112;-71
2022/06/12 00:42:50;;;;;;;7.95;4.47;;;;;;;15.97;100.00;97169.75;5035627;28;20041;-71
2022/06/12 00:45:28;;;;;;;9.52;4.50;;;;;;;15.90;100.00;97177.28;5028190;28;20712;-74
2022/06/12 00:47:59;;;;;;;8.18;4.30;;;;;;;15.78;100.00;97175.63;5029667;28;20501;-71
2022/06/12 00:50:25;;;;;;;15.07;5.88;;;;;;;15.78;100.00;97181.00;5026660;28;20045;-71
2022/06/12 00:52:55;;;;;;;10.57;4.50;;;;;;;15.72;100.00;97182.09;5028904;28;20036;-71
2022/06/12 00:55:39;;;;;;;10.65;4.78;;;;;;;15.71;100.00;97182.34;5030126;28;20033;-71
2022/06/12 00:58:12;;;;;;;10.32;4.45;;;;;;;15.70;100.00;97176.13;5026359;28;20045;-71
2022/06/12 01:00:39;;;;;;;12.68;5.43;;;;;;;15.61;100.00;97183.09;5027999;28;20048;-72
2022/06/12 01:03:05;;;;;;;8.77;3.83;;;;;;;15.59;100.00;97180.66;5025225;28;20048;-71
2022/06/12 01:08:17;;;;;;;11.68;3.83;;;;;;;15.35;100.00;97179.44;5025910;28;20545;-72
2022/06/12 01:10:46;;;;;;;5.85;3.35;;;;;;;15.33;100.00;97171.63;5027369;28;20072;-71
2022/06/12 01:13:29;;;;;;;7.22;3.50;;;;;;;15.26;100.00;97179.13;5027792;28;20048;-71
2022/06/12 01:16:01;;;;;;;11.63;3.85;;;;;;;15.12;100.00;97175.25;5028485;28;20579;-71
2022/06/12 01:18:33;;;;;;;7.18;3.15;;;;;;;15.00;100.00;97170.06;5027542;28;20433;-71
2022/06/12 01:21:07;;;;;;;7.82;3.47;;;;;;;15.00;100.00;97170.06;5029915;28;20037;-71
2022/06/12 01:23:57;;;;;;;8.75;3.00;;;;;;;14.83;100.00;97171.28;5027525;28;20052;-73
2022/06/12 01:26:52;;;;;;;10.00;3.22;;;;;;;14.61;100.00;97169.50;5027904;28;20064;-72
2022/06/12 01:29:41;;;;;;;5.80;2.80;;;;;;;14.53;100.00;97167.25;5008210;28;20106;-72
2022/06/12 01:32:15;;;;;;;7.68;3.67;;;;;;;14.41;100.00;97169.28;5023098;28;20123;-72
2022/06/12 01:34:52;;;;;;;8.55;3.55;;;;;;;14.39;100.00;97168.72;5027006;28;20049;-72
2022/06/12 01:37:38;;;;;;;9.40;3.70;;;;;;;14.35;100.00;97163.03;5027194;28;20037;-71
2022/06/12 01:40:18;;;;;;;9.60;3.10;;;;;;;14.44;100.00;97166.91;5026904;28;20042;-72
2022/06/12 01:43:14;;;;;;;11.45;3.60;;;;;;;14.54;100.00;97160.81;5028511;28;20042;-73
2022/06/12 01:46:05;;;;;;;10.75;2.80;;;;;;;14.54;100.00;97150.03;5025227;28;20044;-72
2022/06/12 01:49:04;;;;;;;7.47;2.95;;;;;;;14.47;100.00;97168.28;5026150;28;20124;-72
2022/06/12 01:51:37;;;;;;;6.93;2.92;;;;;;;14.31;100.00;97169.19;5023085;28;20060;-72
2022/06/12 01:54:23;;;;;;;7.50;3.03;;;;;;;14.30;100.00;97171.06;5027951;28;20042;-71
2022/06/12 01:57:16;;;;;;;10.82;2.88;;;;;;;14.38;100.00;97173.28;5036300;28;20056;-73
2022/06/12 01:59:47;;;;;;;8.93;3.08;;;;;;;14.43;100.00;97175.22;5027244;28;20403;-72
2022/06/12 02:02:19;;;;;;;;;;;;;;;14.47;100.00;97177.19;5027273;28;20491;-72
2022/06/12 02:05:10;;;;;;;6.13;2.80;;;;;;;14.37;100.00;97168.16;5024887;28;19917;-71
2022/06/12 02:07:38;;;;;;;;;;;;;;;14.29;100.00;97176.72;5028541;28;20049;-71
2022/06/12 02:10:14;;;;;;;9.32;2.50;;;;;;;13.97;100.00;97166.69;5027558;28;20368;-71
2022/06/12 02:15:45;;;;;;;10.50;3.05;;;;;;;13.73;100.00;97184.19;5025968;28;20128;-71
2022/06/12 02:18:19;;;;;;;6.20;3.35;;;;;;;13.74;100.00;97186.59;5025209;28;20029;-71
2022/06/12 02:20:54;;;;;;;12.07;2.95;;;;;;;13.85;100.00;97179.47;5025836;28;20092;-72
2022/06/12 02:23:29;;;;;;;8.15;2.85;;;;;;;13.95;100.00;97171.53;5028344;28;20528;-72
2022/06/12 02:25:56;;;;;;;5.65;2.83;;;;;;;13.92;100.00;97172.81;5026837;28;20041;-71
2022/06/12 02:28:34;;;;;;;6.28;2.92;;;;;;;13.94;100.00;97172.59;5015000;28;20484;-72
2022/06/12 02:31:03;;;;;;;11.30;3.28;;;;;;;14.05;100.00;97177.00;5026756;28;20045;-72
2022/06/12 02:33:37;;;;;;;7.45;2.90;;;;;;;14.18;100.00;97175.81;5042360;28;20385;-71
2022/06/12 02:36:19;;;;;;;7.45;3.38;;;;;;;14.06;100.00;97167.88;5028216;28;20048;-74
2022/06/12 02:38:53;;;;;;;7.75;3.38;;;;;;;14.17;100.00;97172.31;5027335;28;20094;-71
2022/06/12 02:41:26;;;;;;;10.98;3.92;;;;;;;14.26;100.00;97178.03;5028873;28;20087;-71
2022/06/12 02:43:56;;;;;;;11.65;3.60;;;;;;;14.23;100.00;97168.56;5028011;28;20037;-71
2022/06/12 02:46:29;;;;;;;9.15;3.50;;;;;;;14.30;100.00;97172.94;5024094;28;20411;-72
2022/06/12 02:48:55;;;;;;;11.30;3.78;;;;;;;14.23;100.00;97168.56;5027407;28;20072;-71
2022/06/12 02:51:49;;;;;;;11.02;3.80;;;;;;;14.25;100.00;97173.72;5026714;28;20444;-71
2022/06/12 02:54:47;;;;;;;13.48;3.90;;;;;;;14.20;100.00;97170.97;5023792;28;20124;-71
2022/06/12 02:57:32;;;;;;;10.38;3.17;;;;;;;14.08;100.00;97173.00;5019159;28;20045;-71
2022/06/12 03:00:21;;;;;;;9.10;3.20;;;;;;;14.03;100.00;97172.94;5026492;28;20500;-72
2022/06/12 03:02:55;;;;;;;5.90;3.10;;;;;;;14.02;100.00;97172.16;5027575;28;20165;-74
2022/06/12 03:05:35;;;;;;;8.80;3.60;;;;;;;13.95;100.00;97179.59;5026476;28;20149;-71
2022/06/12 03:08:16;;;;;;;10.00;3.35;;;;;;;13.85;100.00;97172.22;5028013;28;20040;-72
2022/06/12 03:11:08;;;;;;;10.05;3.05;;;;;;;13.85;100.00;97174.06;5028145;28;20153;-71
2022/06/12 03:13:36;;;;;;;10.98;3.78;;;;;;;13.79;100.00;97177.81;5026398;28;20040;-72
2022/06/12 03:16:13;;;;;;;12.40;3.90;;;;;;;13.77;100.00;97174.53;5027685;28;20045;-71
2022/06/12 03:18:43;;;;;;;11.77;4.07;;;;;;;13.82;100.00;97179.97;5026232;28;20119;-71
2022/06/12 03:21:28;;;;;;;7.60;3.55;;;;;;;13.78;100.00;97177.00;5025800;28;20048;-73
2022/06/12 03:24:12;;;;;;;9.75;3.90;;;;;;;13.67;100.00;97183.28;5026007;28;20221;-73
2022/06/12 03:26:52;;;;;;;8.85;3.67;;;;;;;13.65;100.00;97183.56;5027595;28;20052;-73
2022/06/12 03:29:20;;;;;;;16.33;3.97;;;;;;;13.60;100.00;97178.09;5027317;28;20069;-73
2022/06/12 03:32:01;;;;;;;12.65;3.90;;;;;;;13.65;100.00;97183.56;5025811;28;20114;-72
2022/06/12 03:34:46;;;;;;;11.65;4.03;;;;;;;13.71;100.00;97181.75;5025126;28;20119;-72
2022/06/12 03:37:27;;;;;;;12.25;4.10;;;;;;;13.63;100.00;97180.31;5026918;28;20383;-71
2022/06/12 03:40:14;;;;;;;14.30;3.53;;;;;;;13.61;100.00;97190.47;5028923;28;20465;-72
2022/06/12 03:42:57;;;;;;;11.73;3.80;;;;;;;13.68;100.00;97184.09;5031305;28;20046;-71
2022/06/12 03:45:28;;;;;;;14.82;4.38;;;;;;;13.72;100.00;97193.31;5028104;28;20041;-71
2022/06/12 03:48:09;;;;;;;11.50;4.18;;;;;;;13.76;100.00;97197.13;5028709;28;20131;-71
2022/06/12 03:50:52;;;;;;;11.07;3.73;;;;;;;13.82;100.00;97193.44;5030944;28;20047;-71
2022/06/12 03:53:36;;;;;;;12.48;4.13;;;;;;;13.84;100.00;97194.78;5026663;28;20037;-73
2022/06/12 03:59:01;;;;;;;11.75;4.13;;;;;;;14.13;100.00;97192.69;5029802;28;20511;-71
2022/06/12 04:01:29;;;;;;;15.35;4.00;;;;;;;14.21;100.00;97194.94;5030458;28;20570;-71
2022/06/12 04:03:56;;;;;;;13.55;4.22;;;;;;;14.23;100.00;97192.78;5029266;28;20508;-71
2022/06/12 04:06:25;;;;;;;7.57;3.70;;;;;;;14.20;100.00;97187.94;5029701;28;20300;-72
2022/06/12 04:08:56;;;;;;;9.02;3.60;;;;;;;14.16;100.00;97184.13;5028417;28;20649;-73
2022/06/12 04:11:25;;;;;;;11.30;4.05;;;;;;;14.16;100.00;97184.13;5027751;28;20556;-72
2022/06/12 04:13:52;;;;;;;11.27;4.30;;;;;;;14.19;100.00;97189.00;5028690;28;20856;-72
2022/06/12 04:16:29;;;;;;;12.18;3.92;;;;;;;14.21;100.00;97188.75;5027348;28;20075;-74
2022/06/12 04:18:56;;;;;;;8.95;3.67;;;;;;;14.22;100.00;97193.88;5029155;28;20040;-72
2022/06/12 04:22:11;;;;;;;12.27;4.00;;;;;;;14.18;100.00;97190.06;5028932;28;20532;-72
2022/06/12 04:24:46;;;;;;;14.10;4.72;;;;;;;14.20;100.00;97195.19;5023012;28;20053;-72
2022/06/12 04:27:26;;;;;;;9.13;3.88;;;;;;;14.20;100.00;97185.25;5028504;28;20072;-74
2022/06/12 04:29:56;;;;;;;9.82;4.55;;;;;;;14.20;100.00;97187.94;5027927;28;20538;-72
2022/06/12 04:32:23;;;;;;;11.13;4.22;;;;;;;14.20;100.00;97187.94;5027744;28;20157;-73
2022/06/12 04:34:48;;;;;;;12.38;4.07;;;;;;;14.20;100.00;97185.25;5026688;28;20405;-74
2022/06/12 04:37:18;;;;;;;11.27;4.13;;;;;;;14.25;100.00;97189.88;5029288;28;20057;-73
2022/06/12 04:39:44;;;;;;;12.00;4.65;;;;;;;14.31;100.00;97194.22;5026226;28;20041;-72
2022/06/12 04:42:13;;;;;;;9.23;4.30;;;;;;;14.35;100.00;97194.53;5045483;28;20495;-73
2022/06/12 04:44:40;;;;;;;10.63;4.10;;;;;;;14.34;100.00;97195.63;5029470;28;20112;-72
2022/06/12 04:47:07;;;;;;;15.90;4.20;;;;;;;14.39;100.00;97203.72;5027084;28;20253;-72
2022/06/12 04:49:35;;;;;;;10.00;4.20;;;;;;;14.46;100.00;97207.06;5033999;28;20092;-75
2022/06/12 04:52:04;;;;;;;13.20;4.75;;;;;;;14.52;100.00;97202.53;5028790;28;20037;-72
2022/06/12 04:54:31;;;;;;;15.82;4.38;;;;;;;14.55;100.00;97208.22;5027592;28;20515;-72
2022/06/12 04:56:57;;;;;;;15.00;4.80;;;;;;;14.64;100.00;97206.69;5027271;28;20037;-75
2022/06/12 04:59:22;;;;;;;14.27;4.88;;;;;;;14.73;100.00;97205.16;5025778;28;20056;-75
2022/06/12 05:01:48;;;;;;;11.88;4.57;;;;;;;14.79;100.00;97203.31;5029075;28;20045;-73
2022/06/12 05:04:15;;;;;;;12.02;4.10;;;;;;;14.82;100.00;97202.00;5027041;28;20045;-75
2022/06/12 05:06:42;;;;;;;17.45;6.10;;;;;;;14.88;100.00;97200.97;5027342;28;20208;-72
2022/06/12 05:09:09;;;;;;;16.58;5.47;;;;;;;15.00;100.00;97210.47;5026461;28;20345;-72
2022/06/12 05:11:35;;;;;;;16.05;5.05;;;;;;;15.08;100.00;97211.06;5029132;28;20125;-72
2022/06/12 05:14:01;;;;;;;18.40;5.40;;;;;;;15.16;100.00;97207.88;5028755;28;20112;-72
2022/06/12 05:16:29;;;;;;;14.18;4.75;;;;;;;15.25;100.00;97199.09;5029808;28;20423;-75
2022/06/12 05:18:55;;;;;;;13.05;5.10;;;;;;;15.32;100.00;97199.63;5025636;28;20041;-74
2022/06/12 05:21:22;;;;;;;14.70;5.05;;;;;;;15.35;100.00;97198.31;5027933;28;20065;-73
2022/06/12 05:23:47;;;;;;;18.80;5.95;;;;;;;15.40;100.00;97203.72;5027016;28;20042;-73
2022/06/12 05:26:15;;;;;;;14.35;5.70;;;;;;;15.46;100.00;97205.38;5025072;28;20373;-75
2022/06/12 05:28:41;;;;;;;12.30;5.53;;;;;;;15.48;100.00;97215.91;5027319;28;20110;-75
2022/06/12 05:31:07;;;;;;;17.33;5.28;;;;;;;15.52;100.00;97212.44;5027079;28;20045;-73
2022/06/12 05:33:32;;;;;;;14.30;4.90;;;;;;;15.57;100.00;97208.97;5028322;28;20071;-74
2022/06/12 05:35:58;;;;;;;11.70;5.53;;;;;;;15.59;100.00;97204.13;5061258;28;20116;-73
2022/06/12 05:38:24;;;;;;;18.13;4.95;;;;;;;15.66;100.00;97206.63;5027551;28;20498;-72
2022/06/12 05:40:50;;;;;;;16.02;5.50;;;;;;;15.69;100.00;97206.88;5027271;28;20112;-72
2022/06/12 05:43:15;;;;;;;16.55;5.75;;;;;;;15.56;100.00;97188.44;5027102;28;20045;-72
2022/06/12 05:45:41;;;;;;;18.20;5.72;;;;;;;15.46;100.00;97191.91;5025502;28;20096;-75
2022/06/12 05:48:13;;;;;;;15.38;5.22;;;;;;;15.64;100.00;97204.19;5043206;28;20041;-72
2022/06/12 05:50:55;;;;;;;16.25;6.03;;;;;;;15.76;100.00;97193.97;5027314;28;20041;-72
2022/06/12 05:53:24;;;;;;;15.60;5.70;;;;;;;15.90;100.00;97201.59;5027294;28;20519;-72
2022/06/12 05:55:51;;;;;;;17.38;5.15;;;;;;;15.98;100.00;97193.78;5042339;28;20036;-71
2022/06/12 05:58:18;;;;;;;17.88;5.75;;;;;;;16.08;100.00;97187.59;5025284;28;20139;-71
2022/06/12 06:00:45;;;;;;;20.77;6.13;;;;;;;16.18;100.00;97195.72;5027913;28;20041;-72
2022/06/12 06:03:10;;;;;;;22.33;6.47;;;;;;;16.20;100.00;97196.28;5027004;28;21121;-74
2022/06/12 06:05:38;;;;;;;15.30;5.70;;;;;;;16.26;100.00;97189.78;5026095;28;20042;-71
2022/06/12 06:08:04;;;;;;;16.98;5.88;;;;;;;16.33;100.00;97189.53;5026303;28;20052;-75
2022/06/12 06:10:29;;;;;;;19.25;6.22;;;;;;;16.37;100.00;97194.16;5025269;28;20038;-72
2022/06/12 06:12:55;;;;;;;16.92;5.30;;;;;;;16.43;100.00;97201.19;5027388;28;20060;-72
2022/06/12 06:15:22;;;;;;;20.55;5.75;;;;;;;16.48;100.00;97191.47;5026883;28;20044;-72
2022/06/12 06:17:47;;;;;;;14.27;5.60;;;;;;;16.53;100.00;97191.47;5033108;28;20530;-72
2022/06/12 06:20:21;;;;;;;17.85;5.00;;;;;;;16.57;100.00;97195.25;5026735;28;20045;-73
2022/06/12 06:22:47;;;;;;;20.90;5.03;;;;;;;16.61;100.00;97182.84;5027823;28;20078;-74
2022/06/12 06:25:12;;;;;;;9.70;4.90;;;;;;;16.67;100.00;97195.28;4331518;28;10000874;-73
2022/06/12 06:27:38;;;;;;;12.27;5.13;;;;;;;16.64;100.00;97183.09;5025143;28;20094;-76
2022/06/12 06:30:04;;;;;;;16.00;4.38;;;;;;;16.76;100.00;97187.47;5024231;28;20099;-74
2022/06/12 06:32:32;;;;;;;11.27;4.28;;;;;;;16.81;100.00;97191.00;5027819;28;20115;-74
2022/06/12 06:34:58;;;;;;;19.25;5.18;;;;;;;16.84;100.00;97186.94;5026147;28;20128;-73
2022/06/12 06:37:24;;;;;;;18.23;5.00;;;;;;;16.87;100.00;97187.19;5026166;28;20111;-73
2022/06/12 06:39:49;;;;;;;18.33;4.78;;;;;;;16.91;100.00;97192.88;5024559;28;20045;-74
2022/06/12 06:42:15;;;;;;;20.05;5.00;;;;;;;16.96;100.00;97195.56;5025045;28;20080;-75
2022/06/12 06:47:26;;;;;;;18.70;4.65;;;;;;;17.05;100.00;97193.94;5025679;28;20560;-74
2022/06/12 06:49:52;;;;;;;18.00;5.40;;;;;;;17.06;100.00;97178.53;5024388;28;20032;-73
2022/06/12 06:52:18;;;;;;;19.40;4.70;;;;;;;17.13;100.00;97193.41;5025898;28;20085;-71
2022/06/12 06:54:43;;;;;;;19.92;4.57;;;;;;;17.17;100.00;97199.06;5023907;28;20061;-71
2022/06/12 06:57:09;;;;;;;20.05;4.65;;;;;;;17.18;100.00;97195.28;5026699;28;20532;-70
2022/06/12 06:59:35;;;;;;;25.95;5.03;;;;;;;17.23;100.00;97192.56;5024415;28;20373;-70
2022/06/12 07:02:03;;;;;;;16.00;4.07;;;;;;;17.22;100.00;97191.75;5029887;28;20149;-77
2022/06/12 07:04:29;;;;;;;11.18;3.78;;;;;;;17.26;100.00;97197.41;5025107;28;20034;-70
2022/06/12 07:06:54;;;;;;;11.60;3.78;;;;;;;17.29;100.00;97190.69;5025512;28;20068;-71
2022/06/12 07:09:20;;;;;;;15.32;4.03;;;;;;;17.33;100.00;97186.31;5028114;28;20436;-70
2022/06/12 07:11:45;;;;;;;15.02;3.40;;;;;;;17.37;100.00;97192.81;5028738;28;20116;-70
2022/06/12 07:14:11;;;;;;;12.60;3.40;;;;;;;17.48;100.00;97197.91;5026872;28;20483;-71
2022/06/12 07:16:38;;;;;;;9.88;3.30;;;;;;;17.57;100.00;97186.53;5035699;28;20080;-73
2022/06/12 07:19:05;;;;;;;13.02;2.85;;;;;;;17.57;100.00;97186.53;5030957;28;20041;-73
2022/06/12 07:21:30;;;;;;;12.75;4.32;;;;;;;17.44;100.00;97194.16;5032706;28;20056;-70
2022/06/12 07:23:56;;;;;;;10.18;2.88;;;;;;;17.54;100.00;97191.41;5028211;28;20052;-70
2022/06/12 07:26:25;;;;;;;10.90;3.15;;;;;;;17.61;100.00;97191.13;5030262;28;20050;-70
2022/06/12 07:28:51;;;;;;;12.85;3.42;;;;;;;17.66;100.00;97188.38;5027430;28;20064;-73
2022/06/12 07:31:18;;;;;;;12.98;3.38;;;;;;;17.68;100.00;97185.44;5029456;28;20547;-73
2022/06/12 07:33:44;;;;;;;13.48;3.58;;;;;;;17.68;100.00;97174.59;5032842;28;20468;-72
2022/06/12 07:36:12;;;;;;;13.07;3.33;;;;;;;17.75;100.00;97175.16;5031074;28;20033;-74
2022/06/12 07:38:39;;;;;;;11.95;3.03;;;;;;;17.64;100.00;97177.03;5030399;28;20041;-72
2022/06/12 07:41:08;;;;;;;14.88;3.65;;;;;;;17.81;100.00;97180.25;5029674;28;20554;-72
2022/06/12 07:43:35;;;;;;;13.63;2.88;;;;;;;17.87;100.00;97183.75;5028564;28;20065;-73
2022/06/12 07:46:03;;;;;;;11.77;3.05;;;;;;;17.90;100.00;97183.22;5029742;28;20488;-75
2022/06/12 07:48:31;;;;;;;14.73;2.90;;;;;;;17.89;100.00;97184.28;5032775;28;20056;-73
2022/06/12 07:50:58;;;;;;;13.32;3.10;;;;;;;17.94;100.00;97189.66;5031206;28;20546;-72
2022/06/12 07:53:24;;;;;;;12.43;2.90;;;;;;;18.01;100.00;97190.19;5029362;28;20457;-73
2022/06/12 07:55:51;;;;;;;10.35;3.00;;;;;;;18.05;100.00;97188.56;5031230;28;20037;-73
2022/06/12 07:58:17;;;;;;;8.57;2.58;;;;;;;18.12;100.00;97192.84;5028787;28;20052;-73
2022/06/12 08:00:44;;;;;;;15.68;2.83;;;;;;;18.15;100.00;97189.59;5028943;28;20098;-73
2022/06/12 08:03:10;;;;;;;12.85;2.80;;;;;;;18.16;100.00;97191.19;5032793;28;20040;-74
2022/06/12 08:05:36;;;;;;;10.63;2.65;;;;;;;18.25;100.00;97184.91;5047235;28;20037;-73
2022/06/12 08:08:02;;;;;;;11.23;2.78;;;;;;;18.32;100.00;97198.16;5030487;28;20557;-73
2022/06/12 08:10:28;;;;;;;9.95;2.55;;;;;;;18.50;100.00;97194.78;5029747;28;20041;-74
2022/06/12 08:12:56;;;;;;;13.27;2.97;;;;;;;18.73;100.00;97198.72;5029573;28;20034;-72
2022/06/12 08:15:26;;;;;;;13.05;2.83;;;;;;;19.05;100.00;97189.22;5029074;28;20045;-72
2022/06/12 08:17:53;;;;;;;12.93;2.93;;;;;;;19.09;100.00;97195.72;5028037;28;20037;-73
2022/06/12 08:20:25;;;;;;;9.60;2.70;;;;;;;18.89;100.00;97196.69;5032300;28;20111;-72
2022/06/12 08:23:32;;;;;;;10.68;2.75;;;;;;;18.90;100.00;97198.31;5031495;28;20045;-74
2022/06/12 08:26:05;;;;;;;14.15;2.88;;;;;;;18.92;100.00;97204.28;5030804;28;20083;-74
2022/06/12 08:28:34;;;;;;;13.73;3.20;;;;;;;18.79;100.00;97196.78;5032147;28;20205;-75
2022/06/12 08:31:05;;;;;;;15.73;2.97;;;;;;;18.84;100.00;97199.47;5028947;28;20307;-71
2022/06/12 08:33:31;;;;;;;;;;;;;;;18.91;100.00;97199.94;5029849;28;20038;-71
2022/06/12 08:35:57;;;;;;;10.25;2.75;;;;;;;18.75;100.00;97206.56;5031141;28;19958;-71
2022/06/12 08:38:23;;;;;;;17.00;3.13;;;;;;;18.81;100.00;97203.53;5035683;28;20190;-71
2022/06/12 08:41:18;;;;;;;11.32;2.75;;;;;;;18.83;100.00;97197.81;5030163;28;20726;-72
2022/06/12 08:44:03;;;;;;;13.75;3.30;;;;;;;18.91;100.00;97203.47;5018026;28;20050;-72
2022/06/12 08:46:53;;;;;;;9.88;2.88;;;;;;;18.93;100.00;97197.75;5027977;28;20556;-72
2022/06/12 08:49:30;;;;;;;9.55;2.60;;;;;;;18.88;100.00;97195.88;5031733;28;20044;-76
2022/06/12 08:52:02;;;;;;;11.25;2.88;;;;;;;18.96;100.00;97197.16;5035873;28;20050;-72
2022/06/12 08:54:39;;;;;;;5.90;2.08;;;;;;;18.96;100.00;97194.47;5035157;28;20047;-71
2022/06/12 08:57:11;;;;;;;12.82;3.25;;;;;;;19.00;100.00;97189.28;5028986;28;20045;-74
2022/06/12 08:59:45;;;;;;;10.98;3.28;;;;;;;19.08;100.00;97185.97;5028377;28;20087;-72
2022/06/12 09:02:25;;;;;;;13.57;2.83;;;;;;;19.00;100.00;97184.69;5027734;28;20048;-72
2022/06/12 09:04:58;;;;;;;15.98;2.55;;;;;;;18.97;99.79;97182.50;5030848;28;20115;-74
2022/06/12 09:07:45;;;;;;;9.77;2.40;;;;;;;19.09;100.00;97174.03;5031998;28;20443;-75
2022/06/12 09:10:31;;;;;;;9.15;2.10;;;;;;;19.20;99.26;97168.19;5029083;28;20050;-73
2022/06/12 09:13:35;;;;;;;8.68;2.03;;;;;;;19.29;97.79;97165.66;5029424;28;20050;-73
2022/06/12 09:16:09;;;;;;;10.20;2.58;;;;;;;19.25;93.01;97156.50;5034209;28;20053;-72
2022/06/12 09:19:00;;;;;;;7.70;1.92;;;;;;;19.31;96.28;97158.06;5031936;28;20508;-73
2022/06/12 09:21:37;;;;;;;8.70;2.15;;;;;;;19.38;93.41;97155.00;5031746;28;20048;-72
2022/06/12 09:24:32;;;;;;;6.05;2.05;;;;;;;19.47;93.55;97156.00;5030242;28;20137;-73
2022/06/12 09:27:07;;;;;;;12.20;2.13;;;;;;;19.53;93.08;97151.28;5052474;28;20056;-73
2022/06/12 09:29:45;;;;;;;6.95;2.28;;;;;;;19.60;90.72;97138.22;5026898;28;20064;-74
2022/06/12 09:32:13;;;;;;;5.28;1.92;;;;;;;19.67;96.11;97155.78;5028418;28;20072;-75
2022/06/12 09:34:58;;;;;;;15.27;2.90;;;;;;;19.84;99.34;97141.72;5029078;28;20037;-72
2022/06/12 09:40:40;;;;;;;9.43;2.67;;;;;;;20.15;93.19;97149.44;5030606;28;20155;-72
2022/06/12 09:43:26;;;;;;;8.70;2.22;;;;;;;20.16;95.12;97135.59;5028477;28;20507;-71
2022/06/12 09:46:12;;;;;;;8.45;2.03;;;;;;;20.22;95.70;97137.13;5026704;28;20045;-73
2022/06/12 09:48:51;;;;;;;7.15;2.17;;;;;;;20.35;88.20;97141.03;5027770;28;20531;-72
2022/06/12 09:51:29;;;;;;;8.63;2.38;;;;;;;20.37;85.96;97143.44;5030440;28;20068;-71
2022/06/12 09:54:35;;;;;;;17.02;2.50;;;;;;;20.53;92.45;97142.94;5029697;28;20068;-71
2022/06/12 09:57:07;;;;;;;11.18;2.78;;;;;;;20.76;90.28;97134.97;5030521;28;20045;-74
2022/06/12 09:59:40;;;;;;;8.35;2.30;;;;;;;20.81;89.98;97132.97;5026838;28;20713;-71
2022/06/12 10:02:18;;;;;;;8.82;2.20;;;;;;;20.85;89.98;97131.28;5030783;28;20122;-74
2022/06/12 10:04:51;;;;;;;7.30;2.40;;;;;;;21.02;90.24;97138.09;5028263;28;20037;-72
2022/06/12 10:07:28;;;;;;;12.98;2.70;;;;;;;21.15;87.33;97124.47;5028330;28;20468;-72
2022/06/12 10:10:06;;;;;;;9.88;3.00;;;;;;;21.37;88.35;97123.03;5028426;28;20546;-72
2022/06/12 10:12:39;;;;;;;8.43;2.72;;;;;;;21.40;84.82;97122.44;5027712;28;20033;-73
2022/06/12 10:15:17;;;;;;;8.82;2.05;;;;;;;21.65;87.61;97107.50;5027037;28;20029;-75
2022/06/12 10:17:53;;;;;;;11.65;2.58;;;;;;;21.69;85.24;97120.19;5029569;28;20315;-72
2022/06/12 10:20:47;;;;;;;9.13;2.45;;;;;;;21.78;82.93;97122.19;5027367;28;20515;-72
2022/06/12 10:23:13;;;;;;;9.35;2.85;;;;;;;21.70;86.30;97123.72;5028914;28;20432;-72
2022/06/12 10:25:46;;;;;;;11.52;2.60;;;;;;;21.58;90.97;97120.72;5042572;28;20120;-74
2022/06/12 10:28:14;;;;;;;9.25;2.63;;;;;;;21.90;85.85;97106.97;5029053;28;20597;-72
2022/06/12 10:30:46;;;;;;;10.00;2.58;;;;;;;21.92;81.34;97112.91;5027150;28;20060;-72
2022/06/12 10:33:19;;;;;;;11.02;2.50;;;;;;;22.19;86.80;97111.28;5027811;28;20384;-72
2022/06/12 10:35:48;;;;;;;11.05;2.80;;;;;;;22.29;85.49;97110.22;5028585;28;20045;-72
2022/06/12 10:38:13;;;;;;;10.55;2.72;;;;;;;22.36;83.17;97108.69;5028668;28;20050;-72
2022/06/12 10:40:48;;;;;;;11.02;2.33;;;;;;;22.33;81.54;97112.00;5027268;28;20044;-71
2022/06/12 10:43:23;;;;;;;6.82;2.20;;;;;;;22.45;83.84;97112.28;5062145;28;20037;-75
2022/06/12 10:45:59;;;;;;;9.55;3.10;;;;;;;22.50;81.87;97111.38;5028463;28;20052;-74
2022/06/12 10:48:30;;;;;;;8.30;2.28;;;;;;;22.60;80.71;97119.28;5031286;28;20040;-71
2022/06/12 10:51:00;;;;;;;9.55;2.33;;;;;;;22.73;77.25;97120.34;5032956;28;20056;-71
2022/06/12 10:53:29;;;;;;;10.13;2.95;;;;;;;22.71;77.70;97100.75;5033902;28;20041;-71
2022/06/12 10:56:28;;;;;;;9.95;2.45;;;;;;;23.09;72.15;97106.63;5030787;28;20119;-72
2022/06/12 10:59:15;;;;;;;10.13;2.20;;;;;;;23.21;72.98;97103.31;5031398;28;20039;-71
2022/06/12 11:01:55;;;;;;;10.32;2.50;;;;;;;23.70;68.42;97109.63;5031435;28;20108;-72
2022/06/12 11:04:30;;;;;;;12.38;2.17;;;;;;;24.04;64.33;97098.75;5029958;28;20186;-73
2022/06/12 11:07:03;;;;;;;10.50;2.15;;;;;;;23.70;62.08;97110.44;5035087;28;20045;-71
2022/06/12 11:10:24;;;;;;;9.30;2.38;;;;;;;24.02;53.26;97097.47;5028345;28;20068;-72
2022/06/12 11:13:08;;;;;;;;;;;;;;;24.27;54.19;97095.88;4967312;28;20041;-71
2022/06/12 11:15:44;;;;;;;10.07;2.08;;;;;;;24.61;59.36;97097.84;5032076;28;19922;-72
2022/06/12 11:18:32;;;;;;;9.32;2.13;;;;;;;24.93;52.74;97094.56;5032200;28;20045;-74
2022/06/12 11:21:31;;;;;;;8.00;2.15;;;;;;;25.33;43.72;97088.81;5033261;28;20107;-74
2022/06/12 11:24:11;;;;;;;8.50;1.95;;;;;;;25.98;46.98;97086.72;5030343;28;20116;-72
2022/06/12 11:27:09;;;;;;;10.75;2.00;;;;;;;26.87;44.41;97082.59;5031743;28;20041;-74
2022/06/12 11:29:49;;;;;;;8.68;1.75;;;;;;;27.77;38.28;97081.72;5030477;28;20529;-73
2022/06/12 11:32:47;;;;;;;6.78;1.75;;;;;;;29.21;35.23;97081.13;5031129;28;20076;-71
2022/06/12 11:35:26;;;;;;;8.75;2.20;;;;;;;30.88;32.90;97075.88;5027453;28;20076;-72
2022/06/12 11:38:17;;;;;;;11.23;2.25;;;;;;;32.75;28.27;97068.09;5033663;28;20591;-72
2022/06/12 11:40:53;;;;;;;10.20;1.85;;;;;;;33.45;28.18;97072.00;5027959;28;20064;-72
2022/06/12 11:43:28;;;;;;;8.00;2.00;;;;;;;34.82;25.36;97070.47;5030566;28;20729;-74
2022/06/12 11:45:59;;;;;;;8.70;2.00;;;;;;;35.49;23.82;97065.44;5032643;28;20045;-72
2022/06/12 11:48:46;;;;;;;8.02;2.28;;;;;;;36.65;22.83;97071.22;5027056;28;20480;-72
2022/06/12 11:51:30;;;;;;;9.60;2.20;;;;;;;37.31;22.99;97071.28;5030734;28;20041;-71
2022/06/12 11:54:11;;;;;;;9.25;1.70;;;;;;;36.52;24.20;97070.91;5047371;28;20375;-72
2022/06/12 11:56:48;;;;;;;5.47;2.10;;;;;;;37.53;23.23;97071.94;5045648;28;20646;-73
2022/06/12 11:59:56;;;;;;;9.38;2.13;;;;;;;35.28;24.25;97066.22;5028827;28;20384;-71
2022/06/12 12:02:42;;;;;;;9.02;2.05;;;;;;;35.12;26.55;97070.19;5014767;28;20111;-73
2022/06/12 12:05:20;;;;;;;8.50;2.22;;;;;;;37.16;23.58;97062.19;5029535;28;20048;-72
2022/06/12 12:07:57;;;;;;;8.93;2.20;;;;;;;35.96;24.12;97055.91;5033382;28;20115;-72